sensor_id;sensor_type;location;lat;lon;timestamp;pressure;altitude;pressure_sealevel;temperature;humidity
81274;BME280;70753;47.908;11.274;2023-07-13T00:00:40;94797.50;;;20.07;76.61
81274;BME280;70753;47.908;11.274;2023-07-13T00:03:07;94788.78;;;20.38;75.66
81274;BME280;70753;47.908;11.274;2023-07-13T00:05:32;94784.03;;;20.62;74.05
81274;BME280;70753;47.908;11.274;2023-07-13T00:07:57;94784.25;;;20.70;73.97
81274;BME280;70753;47.908;11.274;2023-07-13T00:10:23;94789.78;;;20.89;73.27
81274;BME280;70753;47.908;11.274;2023-07-13T00:12:48;94781.81;;;20.80;73.71
81274;BME280;70753;47.908;11.274;2023-07-13T00:15:19;94778.41;;;20.83;73.36
81274;BME280;70753;47.908;11.274;2023-07-13T00:17:45;94771.06;;;20.84;73.21
81274;BME280;70753;47.908;11.274;2023-07-13T00:20:12;94772.06;;;20.91;71.50
81274;BME280;70753;47.908;11.274;2023-07-13T00:22:37;94771.41;;;20.82;71.62
81274;BME280;70753;47.908;11.274;2023-07-13T00:25:03;94773.25;;;20.78;71.09
81274;BME280;70753;47.908;11.274;2023-07-13T00:27:29;94782.41;;;20.74;71.78
81274;BME280;70753;47.908;11.274;2023-07-13T00:29:54;94787.13;;;20.77;71.15
81274;BME280;70753;47.908;11.274;2023-07-13T00:32:20;94793.75;;;20.63;70.97
81274;BME280;70753;47.908;11.274;2023-07-13T00:34:45;94796.13;;;20.53;71.59
81274;BME280;70753;47.908;11.274;2023-07-13T00:37:12;94797.38;;;20.55;71.04
81274;BME280;70753;47.908;11.274;2023-07-13T00:39:38;94803.38;;;20.49;72.05
81274;BME280;70753;47.908;11.274;2023-07-13T00:42:04;94796.06;;;20.49;71.50
81274;BME280;70753;47.908;11.274;2023-07-13T00:44:30;94792.75;;;20.28;72.24
81274;BME280;70753;47.908;11.274;2023-07-13T00:46:56;94789.44;;;20.35;72.67
81274;BME280;70753;47.908;11.274;2023-07-13T00:49:22;94785.31;;;20.53;71.17
81274;BME280;70753;47.908;11.274;2023-07-13T00:51:51;94789.50;;;20.50;72.32
81274;BME280;70753;47.908;11.274;2023-07-13T00:54:22;94774.81;;;20.51;71.82
81274;BME280;70753;47.908;11.274;2023-07-13T00:56:51;94785.66;;;20.51;72.21
81274;BME280;70753;47.908;11.274;2023-07-13T00:59:17;94780.44;;;20.58;72.00
81274;BME280;70753;47.908;11.274;2023-07-13T01:01:44;94769.63;;;20.58;71.08
81274;BME280;70753;47.908;11.274;2023-07-13T01:04:09;94772.97;;;20.68;70.22
81274;BME280;70753;47.908;11.274;2023-07-13T01:06:35;94768.94;;;20.61;71.46
81274;BME280;70753;47.908;11.274;2023-07-13T01:09:02;94761.13;;;20.60;70.92
81274;BME280;70753;47.908;11.274;2023-07-13T01:11:29;94772.31;;;20.58;71.21
81274;BME280;70753;47.908;11.274;2023-07-13T01:13:54;94757.00;;;20.50;70.97
81274;BME280;70753;47.908;11.274;2023-07-13T01:16:23;94743.91;;;20.52;71.00
81274;BME280;70753;47.908;11.274;2023-07-13T01:18:49;94755.34;;;20.46;70.63
81274;BME280;70753;47.908;11.274;2023-07-13T01:21:16;94749.34;;;20.52;70.97
81274;BME280;70753;47.908;11.274;2023-07-13T01:23:41;94748.69;;;20.43;71.36
81274;BME280;70753;47.908;11.274;2023-07-13T01:26:07;94746.47;;;20.33;73.19
81274;BME280;70753;47.908;11.274;2023-07-13T01:28:32;94736.53;;;20.37;71.72
81274;BME280;70753;47.908;11.274;2023-07-13T01:30:58;94726.00;;;20.20;72.27
81274;BME280;70753;47.908;11.274;2023-07-13T01:33:24;94729.03;;;19.67;74.30
81274;BME280;70753;47.908;11.274;2023-07-13T01:35:50;94723.72;;;20.10;72.83
81274;BME280;70753;47.908;11.274;2023-07-13T01:38:19;94718.56;;;19.53;74.39
81274;BME280;70753;47.908;11.274;2023-07-13T01:40:46;94719.34;;;19.30;75.94
81274;BME280;70753;47.908;11.274;2023-07-13T01:43:12;94724.00;;;19.93;73.87
81274;BME280;70753;47.908;11.274;2023-07-13T01:45:37;94736.13;;;20.23;73.08
81274;BME280;70753;47.908;11.274;2023-07-13T01:48:03;94732.16;;;20.21;73.83
81274;BME280;70753;47.908;11.274;2023-07-13T01:50:29;94737.13;;;20.31;72.83
81274;BME280;70753;47.908;11.274;2023-07-13T01:52:54;94735.75;;;20.37;72.24
81274;BME280;70753;47.908;11.274;2023-07-13T01:55:21;94750.41;;;20.36;72.42
81274;BME280;70753;47.908;11.274;2023-07-13T01:57:47;94755.78;;;20.20;73.63
81274;BME280;70753;47.908;11.274;2023-07-13T02:00:13;94755.28;;;20.30;72.13
81274;BME280;70753;47.908;11.274;2023-07-13T02:02:39;94754.25;;;20.35;71.19
81274;BME280;70753;47.908;11.274;2023-07-13T02:05:05;94763.84;;;20.32;71.48
81274;BME280;70753;47.908;11.274;2023-07-13T02:07:31;94767.47;;;20.12;73.29
81274;BME280;70753;47.908;11.274;2023-07-13T02:09:57;94774.72;;;20.20;73.41
81274;BME280;70753;47.908;11.274;2023-07-13T02:12:24;94778.53;;;20.31;72.74
81274;BME280;70753;47.908;11.274;2023-07-13T02:14:49;94780.63;;;19.86;73.09
81274;BME280;70753;47.908;11.274;2023-07-13T02:17:15;94780.88;;;19.57;75.03
81274;BME280;70753;47.908;11.274;2023-07-13T02:19:41;94781.31;;;19.83;74.28
81274;BME280;70753;47.908;11.274;2023-07-13T02:22:06;94784.63;;;20.16;73.29
81274;BME280;70753;47.908;11.274;2023-07-13T02:24:32;94793.63;;;20.32;73.02
81274;BME280;70753;47.908;11.274;2023-07-13T02:26:57;94797.88;;;20.45;72.78
81274;BME280;70753;47.908;11.274;2023-07-13T02:29:24;94792.41;;;20.57;72.58
81274;BME280;70753;47.908;11.274;2023-07-13T02:31:49;94808.13;;;20.52;72.57
81274;BME280;70753;47.908;11.274;2023-07-13T02:34:15;94803.38;;;20.49;72.46
81274;BME280;70753;47.908;11.274;2023-07-13T02:36:40;94807.09;;;20.56;72.38
81274;BME280;70753;47.908;11.274;2023-07-13T02:39:06;94814.63;;;20.63;71.89
81274;BME280;70753;47.908;11.274;2023-07-13T02:41:32;94816.31;;;20.68;71.96
81274;BME280;70753;47.908;11.274;2023-07-13T02:43:57;94815.00;;;20.61;71.76
81274;BME280;70753;47.908;11.274;2023-07-13T02:46:25;94822.19;;;20.57;73.01
81274;BME280;70753;47.908;11.274;2023-07-13T02:48:50;94818.66;;;20.69;71.86
81274;BME280;70753;47.908;11.274;2023-07-13T02:51:16;94823.78;;;20.58;72.06
81274;BME280;70753;47.908;11.274;2023-07-13T02:53:41;94825.34;;;20.59;69.63
81274;BME280;70753;47.908;11.274;2023-07-13T02:56:06;94824.97;;;20.45;69.74
81274;BME280;70753;47.908;11.274;2023-07-13T02:58:32;94823.28;;;20.41;71.12
81274;BME280;70753;47.908;11.274;2023-07-13T03:00:57;94821.59;;;20.36;71.49
81274;BME280;70753;47.908;11.274;2023-07-13T03:03:24;94828.25;;;20.39;71.03
81274;BME280;70753;47.908;11.274;2023-07-13T03:05:58;94826.34;;;20.39;71.67
81274;BME280;70753;47.908;11.274;2023-07-13T03:08:25;94814.47;;;20.44;71.37
81274;BME280;70753;47.908;11.274;2023-07-13T03:10:59;94821.66;;;20.52;71.89
81274;BME280;70753;47.908;11.274;2023-07-13T03:13:24;94824.16;;;20.45;71.93
81274;BME280;70753;47.908;11.274;2023-07-13T03:15:49;94828.31;;;20.54;71.64
81274;BME280;70753;47.908;11.274;2023-07-13T03:18:15;94820.91;;;20.39;72.13
81274;BME280;70753;47.908;11.274;2023-07-13T03:20:42;94829.22;;;20.58;71.88
81274;BME280;70753;47.908;11.274;2023-07-13T03:23:07;94825.34;;;20.59;72.33
81274;BME280;70753;47.908;11.274;2023-07-13T03:25:32;94831.34;;;20.53;72.53
81274;BME280;70753;47.908;11.274;2023-07-13T03:27:58;94823.19;;;20.37;72.95
81274;BME280;70753;47.908;11.274;2023-07-13T03:30:24;94835.34;;;20.43;71.65
81274;BME280;70753;47.908;11.274;2023-07-13T03:32:50;94838.22;;;20.62;70.99
81274;BME280;70753;47.908;11.274;2023-07-13T03:35:15;94844.66;;;20.58;70.08
81274;BME280;70753;47.908;11.274;2023-07-13T03:37:42;94852.41;;;20.72;70.03
81274;BME280;70753;47.908;11.274;2023-07-13T03:40:09;94856.81;;;20.76;70.12
81274;BME280;70753;47.908;11.274;2023-07-13T03:42:34;94847.50;;;20.61;70.67
81274;BME280;70753;47.908;11.274;2023-07-13T03:45:00;94853.97;;;20.73;70.48
81274;BME280;70753;47.908;11.274;2023-07-13T03:47:25;94852.41;;;20.72;70.04
81274;BME280;70753;47.908;11.274;2023-07-13T03:49:50;94852.16;;;20.77;70.03
81274;BME280;70753;47.908;11.274;2023-07-13T03:52:17;94843.59;;;20.75;70.27
81274;BME280;70753;47.908;11.274;2023-07-13T03:54:44;94850.81;;;20.83;70.42
81274;BME280;70753;47.908;11.274;2023-07-13T03:57:09;94861.13;;;20.93;69.92
81274;BME280;70753;47.908;11.274;2023-07-13T03:59:36;94855.34;;;20.79;70.50
81274;BME280;70753;47.908;11.274;2023-07-13T04:02:02;94855.34;;;20.79;70.51
81274;BME280;70753;47.908;11.274;2023-07-13T04:04:27;94859.09;;;20.90;70.38
81274;BME280;70753;47.908;11.274;2023-07-13T04:06:53;94860.69;;;20.91;70.10
81274;BME280;70753;47.908;11.274;2023-07-13T04:09:18;94863.31;;;20.87;70.21
81274;BME280;70753;47.908;11.274;2023-07-13T04:11:45;94861.22;;;20.96;69.47
81274;BME280;70753;47.908;11.274;2023-07-13T04:14:11;94876.09;;;20.75;69.83
81274;BME280;70753;47.908;11.274;2023-07-13T04:16:36;94877.13;;;20.18;71.69
81274;BME280;70753;47.908;11.274;2023-07-13T04:19:02;94878.44;;;20.48;71.14
81274;BME280;70753;47.908;11.274;2023-07-13T04:21:28;94889.91;;;20.57;71.87
81274;BME280;70753;47.908;11.274;2023-07-13T04:23:54;94874.81;;;20.56;71.65
81274;BME280;70753;47.908;11.274;2023-07-13T04:26:20;94885.28;;;20.70;70.42
81274;BME280;70753;47.908;11.274;2023-07-13T04:28:48;94882.09;;;20.68;70.54
81274;BME280;70753;47.908;11.274;2023-07-13T04:31:15;94878.19;;;20.66;70.13
81274;BME280;70753;47.908;11.274;2023-07-13T04:33:40;94885.41;;;20.61;70.16
81274;BME280;70753;47.908;11.274;2023-07-13T04:36:06;94892.44;;;20.50;70.65
81274;BME280;70753;47.908;11.274;2023-07-13T04:38:32;94895.16;;;20.38;70.81
81274;BME280;70753;47.908;11.274;2023-07-13T04:40:59;94897.41;;;20.36;71.02
81274;BME280;70753;47.908;11.274;2023-07-13T04:43:27;94894.72;;;20.24;72.17
81274;BME280;70753;47.908;11.274;2023-07-13T04:45:55;94892.00;;;20.36;71.66
81274;BME280;70753;47.908;11.274;2023-07-13T04:48:23;94897.63;;;20.43;71.16
81274;BME280;70753;47.908;11.274;2023-07-13T04:50:54;94902.22;;;19.46;73.36
81274;BME280;70753;47.908;11.274;2023-07-13T04:53:21;94900.00;;;19.60;73.40
81274;BME280;70753;47.908;11.274;2023-07-13T04:55:46;94895.38;;;20.09;71.91
81274;BME280;70753;47.908;11.274;2023-07-13T04:58:12;94897.78;;;20.23;71.31
81274;BME280;70753;47.908;11.274;2023-07-13T05:00:37;94908.16;;;20.33;71.47
81274;BME280;70753;47.908;11.274;2023-07-13T05:03:04;94892.00;;;20.36;71.09
81274;BME280;70753;47.908;11.274;2023-07-13T05:05:30;94890.44;;;20.35;71.14
81274;BME280;70753;47.908;11.274;2023-07-13T05:07:55;94898.53;;;20.47;70.15
81274;BME280;70753;47.908;11.274;2023-07-13T05:10:21;94899.91;;;20.41;70.33
81274;BME280;70753;47.908;11.274;2023-07-13T05:12:47;94912.88;;;20.36;70.14
81274;BME280;70753;47.908;11.274;2023-07-13T05:15:12;94920.44;;;20.30;70.17
81274;BME280;70753;47.908;11.274;2023-07-13T05:17:38;94912.97;;;20.15;70.26
81274;BME280;70753;47.908;11.274;2023-07-13T05:20:05;94925.81;;;20.06;71.06
81274;BME280;70753;47.908;11.274;2023-07-13T05:22:31;94919.97;;;20.16;71.19
81274;BME280;70753;47.908;11.274;2023-07-13T05:24:56;94921.09;;;19.79;72.17
81274;BME280;70753;47.908;11.274;2023-07-13T05:27:22;94913.88;;;19.95;71.95
81274;BME280;70753;47.908;11.274;2023-07-13T05:29:48;94915.13;;;19.98;71.95
81274;BME280;70753;47.908;11.274;2023-07-13T05:32:13;94906.41;;;19.56;72.57
81274;BME280;70753;47.908;11.274;2023-07-13T05:34:38;94906.19;;;19.61;73.07
81274;BME280;70753;47.908;11.274;2023-07-13T05:37:06;94905.09;;;19.86;72.46
81274;BME280;70753;47.908;11.274;2023-07-13T05:39:31;94899.22;;;20.08;72.32
81274;BME280;70753;47.908;11.274;2023-07-13T05:41:57;94902.97;;;20.40;70.19
81274;BME280;70753;47.908;11.274;2023-07-13T05:44:23;94911.41;;;20.50;70.30
81274;BME280;70753;47.908;11.274;2023-07-13T05:46:48;94904.53;;;20.41;71.02
81274;BME280;70753;47.908;11.274;2023-07-13T05:49:14;94916.22;;;19.72;73.32
81274;BME280;70753;47.908;11.274;2023-07-13T05:51:40;94918.09;;;19.48;74.28
81274;BME280;70753;47.908;11.274;2023-07-13T05:54:07;94923.56;;;20.08;72.20
81274;BME280;70753;47.908;11.274;2023-07-13T05:56:33;94931.94;;;20.15;72.41
81274;BME280;70753;47.908;11.274;2023-07-13T05:59:00;94927.09;;;20.21;72.73
81274;BME280;70753;47.908;11.274;2023-07-13T06:01:25;94932.81;;;19.71;74.33
81274;BME280;70753;47.908;11.274;2023-07-13T06:03:52;94941.41;;;20.09;73.28
81274;BME280;70753;47.908;11.274;2023-07-13T06:06:17;94942.78;;;20.39;71.98
81274;BME280;70753;47.908;11.274;2023-07-13T06:08:43;94940.50;;;20.53;70.98
81274;BME280;70753;47.908;11.274;2023-07-13T06:11:13;94951.13;;;20.46;70.18
81274;BME280;70753;47.908;11.274;2023-07-13T06:13:40;94948.28;;;20.43;70.67
81274;BME280;70753;47.908;11.274;2023-07-13T06:16:07;94961.03;;;20.42;71.35
81274;BME280;70753;47.908;11.274;2023-07-13T06:18:33;94951.81;;;20.43;71.27
81274;BME280;70753;47.908;11.274;2023-07-13T06:20:59;94957.88;;;20.40;71.04
81274;BME280;70753;47.908;11.274;2023-07-13T06:23:25;94966.34;;;20.39;71.61
81274;BME280;70753;47.908;11.274;2023-07-13T06:25:51;94970.31;;;20.41;71.49
81274;BME280;70753;47.908;11.274;2023-07-13T06:28:18;94971.22;;;20.33;72.33
81274;BME280;70753;47.908;11.274;2023-07-13T06:30:44;94970.06;;;20.34;72.22
81274;BME280;70753;47.908;11.274;2023-07-13T06:33:09;94971.66;;;20.35;72.22
81274;BME280;70753;47.908;11.274;2023-07-13T06:35:35;94972.44;;;20.36;72.71
81274;BME280;70753;47.908;11.274;2023-07-13T06:38:01;94969.41;;;20.49;71.82
81274;BME280;70753;47.908;11.274;2023-07-13T06:40:27;94972.09;;;20.49;71.16
81274;BME280;70753;47.908;11.274;2023-07-13T06:42:52;94976.41;;;20.50;72.08
81274;BME280;70753;47.908;11.274;2023-07-13T06:45:19;94975.03;;;20.44;71.84
81274;BME280;70753;47.908;11.274;2023-07-13T06:47:44;94980.34;;;20.65;71.11
81274;BME280;70753;47.908;11.274;2023-07-13T06:50:10;94973.22;;;20.60;70.56
81274;BME280;70753;47.908;11.274;2023-07-13T06:52:35;94989.47;;;20.60;70.90
81274;BME280;70753;47.908;11.274;2023-07-13T06:55:00;94977.75;;;20.56;71.03
81274;BME280;70753;47.908;11.274;2023-07-13T06:57:26;94981.69;;;20.59;71.80
81274;BME280;70753;47.908;11.274;2023-07-13T06:59:52;94969.00;;;20.75;70.50
81274;BME280;70753;47.908;11.274;2023-07-13T07:02:19;94974.56;;;20.79;69.86
81274;BME280;70753;47.908;11.274;2023-07-13T07:04:44;94974.56;;;20.79;69.39
81274;BME280;70753;47.908;11.274;2023-07-13T07:07:11;94973.19;;;20.73;69.00
81274;BME280;70753;47.908;11.274;2023-07-13T07:09:36;94983.25;;;20.72;69.18
81274;BME280;70753;47.908;11.274;2023-07-13T07:12:02;94977.59;;;20.77;69.35
81274;BME280;70753;47.908;11.274;2023-07-13T07:14:27;94971.84;;;20.79;69.59
81274;BME280;70753;47.908;11.274;2023-07-13T07:16:53;94973.41;;;20.80;70.21
81274;BME280;70753;47.908;11.274;2023-07-13T07:19:19;94977.81;;;20.84;69.15
81274;BME280;70753;47.908;11.274;2023-07-13T07:21:45;94972.50;;;20.88;68.81
81274;BME280;70753;47.908;11.274;2023-07-13T07:24:10;94983.44;;;20.91;68.41
81274;BME280;70753;47.908;11.274;2023-07-13T07:26:36;94988.75;;;20.88;70.06
81274;BME280;70753;47.908;11.274;2023-07-13T07:29:01;94996.00;;;20.72;69.78
81274;BME280;70753;47.908;11.274;2023-07-13T07:31:27;94998.25;;;20.94;70.08
81274;BME280;70753;47.908;11.274;2023-07-13T07:33:53;95000.25;;;21.09;67.85
81274;BME280;70753;47.908;11.274;2023-07-13T07:36:20;94990.56;;;21.08;66.38
81274;BME280;70753;47.908;11.274;2023-07-13T07:38:46;95003.91;;;20.77;65.80
81274;BME280;70753;47.908;11.274;2023-07-13T07:41:11;95007.66;;;20.72;66.09
81274;BME280;70753;47.908;11.274;2023-07-13T07:43:36;95016.78;;;20.68;67.86
81274;BME280;70753;47.908;11.274;2023-07-13T07:46:03;95018.34;;;20.69;66.47
81274;BME280;70753;47.908;11.274;2023-07-13T07:48:29;95024.41;;;20.17;67.92
81274;BME280;70753;47.908;11.274;2023-07-13T07:50:54;95018.59;;;20.51;67.10
81274;BME280;70753;47.908;11.274;2023-07-13T07:53:21;95028.53;;;20.47;65.61
81274;BME280;70753;47.908;11.274;2023-07-13T07:55:47;95035.09;;;20.58;65.94
81274;BME280;70753;47.908;11.274;2023-07-13T07:58:12;95033.72;;;20.52;65.73
81274;BME280;70753;47.908;11.274;2023-07-13T08:00:38;95034.16;;;20.30;67.51
81274;BME280;70753;47.908;11.274;2023-07-13T08:03:03;95040.50;;;20.46;65.85
81274;BME280;70753;47.908;11.274;2023-07-13T08:05:29;95044.81;;;20.03;65.14
81274;BME280;70753;47.908;11.274;2023-07-13T08:07:54;95046.72;;;20.02;67.38
81274;BME280;70753;47.908;11.274;2023-07-13T08:10:21;95049.06;;;19.59;63.40
81274;BME280;70753;47.908;11.274;2023-07-13T08:12:47;95048.03;;;19.84;65.76
81274;BME280;70753;47.908;11.274;2023-07-13T08:15:14;95058.19;;;19.87;66.05
81274;BME280;70753;47.908;11.274;2023-07-13T08:17:40;95054.63;;;20.07;66.93
81274;BME280;70753;47.908;11.274;2023-07-13T08:20:06;95057.34;;;20.07;66.03
81274;BME280;70753;47.908;11.274;2023-07-13T08:22:32;95064.84;;;20.22;66.57
81274;BME280;70753;47.908;11.274;2023-07-13T08:24:59;95055.25;;;20.25;67.05
81274;BME280;70753;47.908;11.274;2023-07-13T08:27:27;95057.44;;;20.11;66.06
81274;BME280;70753;47.908;11.274;2023-07-13T08:29:55;95064.09;;;20.01;67.39
81274;BME280;70753;47.908;11.274;2023-07-13T08:32:22;95068.13;;;19.95;66.16
81274;BME280;70753;47.908;11.274;2023-07-13T08:34:48;95071.13;;;19.81;66.66
81274;BME280;70753;47.908;11.274;2023-07-13T08:37:14;95068.25;;;19.66;66.30
81274;BME280;70753;47.908;11.274;2023-07-13T08:39:40;95066.97;;;19.84;65.92
81274;BME280;70753;47.908;11.274;2023-07-13T08:42:12;95063.19;;;19.97;65.88
81274;BME280;70753;47.908;11.274;2023-07-13T08:44:47;95058.44;;;19.94;65.39
81274;BME280;70753;47.908;11.274;2023-07-13T08:47:19;95065.19;;;19.88;66.78
81274;BME280;70753;47.908;11.274;2023-07-13T08:49:46;95054.50;;;19.38;67.39
81274;BME280;70753;47.908;11.274;2023-07-13T08:52:16;95064.78;;;18.74;68.19
81274;BME280;70753;47.908;11.274;2023-07-13T08:54:45;95064.72;;;19.33;68.28
81274;BME280;70753;47.908;11.274;2023-07-13T08:57:15;95065.75;;;19.61;67.60
81274;BME280;70753;47.908;11.274;2023-07-13T08:59:43;95070.34;;;18.98;68.73
81274;BME280;70753;47.908;11.274;2023-07-13T09:02:26;95065.94;;;19.14;68.13
81274;BME280;70753;47.908;11.274;2023-07-13T09:04:56;95071.56;;;19.51;66.37
81274;BME280;70753;47.908;11.274;2023-07-13T09:07:37;95064.75;;;19.65;66.16
81274;BME280;70753;47.908;11.274;2023-07-13T09:10:14;95066.69;;;19.65;66.99
81274;BME280;70753;47.908;11.274;2023-07-13T09:12:52;95070.44;;;19.72;64.98
81274;BME280;70753;47.908;11.274;2023-07-13T09:15:29;95074.50;;;19.78;66.83
81274;BME280;70753;47.908;11.274;2023-07-13T09:17:59;95068.88;;;19.83;65.39
81274;BME280;70753;47.908;11.274;2023-07-13T09:20:27;95074.31;;;19.63;67.30
81274;BME280;70753;47.908;11.274;2023-07-13T09:22:55;95071.00;;;19.78;65.36
81274;BME280;70753;47.908;11.274;2023-07-13T09:25:27;95080.78;;;19.70;65.38
81274;BME280;70753;47.908;11.274;2023-07-13T09:27:57;95075.66;;;19.57;67.07
81274;BME280;70753;47.908;11.274;2023-07-13T09:30:33;95066.28;;;19.75;66.12
81274;BME280;70753;47.908;11.274;2023-07-13T09:32:59;95071.13;;;19.81;65.20
81274;BME280;70753;47.908;11.274;2023-07-13T09:35:26;95078.00;;;19.79;65.45
81274;BME280;70753;47.908;11.274;2023-07-13T09:37:56;95079.00;;;19.74;65.76
81274;BME280;70753;47.908;11.274;2023-07-13T09:40:28;95076.66;;;19.85;64.91
81274;BME280;70753;47.908;11.274;2023-07-13T09:42:57;95070.47;;;19.84;64.18
81274;BME280;70753;47.908;11.274;2023-07-13T09:45:27;95073.75;;;19.90;65.16
81274;BME280;70753;47.908;11.274;2023-07-13T09:48:04;95076.59;;;19.94;65.18
81274;BME280;70753;47.908;11.274;2023-07-13T09:50:30;95075.31;;;19.79;64.33
81274;BME280;70753;47.908;11.274;2023-07-13T09:52:55;95078.84;;;20.04;63.33
81274;BME280;70753;47.908;11.274;2023-07-13T09:55:26;95082.28;;;20.13;63.52
81274;BME280;70753;47.908;11.274;2023-07-13T09:57:52;95075.75;;;20.14;65.79
81274;BME280;70753;47.908;11.274;2023-07-13T10:00:24;95072.19;;;20.34;63.50
81274;BME280;70753;47.908;11.274;2023-07-13T10:03:00;95068.16;;;20.52;65.48
81274;BME280;70753;47.908;11.274;2023-07-13T10:05:26;95082.25;;;20.57;63.70
81274;BME280;70753;47.908;11.274;2023-07-13T10:07:56;95084.75;;;20.50;62.43
81274;BME280;70753;47.908;11.274;2023-07-13T10:10:22;95094.44;;;20.51;61.58
81274;BME280;70753;47.908;11.274;2023-07-13T10:12:49;95092.19;;;20.53;61.57
81274;BME280;70753;47.908;11.274;2023-07-13T10:15:16;95096.16;;;20.80;59.59
81274;BME280;70753;47.908;11.274;2023-07-13T10:17:43;95099.88;;;21.00;60.22
81274;BME280;70753;47.908;11.274;2023-07-13T10:20:10;95089.94;;;21.28;57.99
81274;BME280;70753;47.908;11.274;2023-07-13T10:22:39;95085.53;;;21.63;56.36
81274;BME280;70753;47.908;11.274;2023-07-13T10:25:14;95089.31;;;21.86;56.62
81274;BME280;70753;47.908;11.274;2023-07-13T10:27:40;95086.38;;;22.50;56.34
81274;BME280;70753;47.908;11.274;2023-07-13T10:30:12;95090.91;;;22.46;56.84
81274;BME280;70753;47.908;11.274;2023-07-13T10:32:39;95087.13;;;23.13;56.79
81274;BME280;70753;47.908;11.274;2023-07-13T10:35:07;95083.91;;;23.08;50.40
81274;BME280;70753;47.908;11.274;2023-07-13T10:37:41;95093.13;;;23.03;51.18
81274;BME280;70753;47.908;11.274;2023-07-13T10:40:13;95078.81;;;22.44;51.74
81274;BME280;70753;47.908;11.274;2023-07-13T10:42:42;95084.16;;;22.56;56.12
81274;BME280;70753;47.908;11.274;2023-07-13T10:45:13;95090.47;;;21.73;55.56
81274;BME280;70753;47.908;11.274;2023-07-13T10:47:39;95088.28;;;23.12;55.93
81274;BME280;70753;47.908;11.274;2023-07-13T10:50:08;95086.25;;;23.79;53.10
81274;BME280;70753;47.908;11.274;2023-07-13T10:52:45;95083.16;;;24.18;52.32
81274;BME280;70753;47.908;11.274;2023-07-13T10:55:36;95089.22;;;23.54;54.75
81274;BME280;70753;47.908;11.274;2023-07-13T10:58:03;95088.47;;;24.53;51.04
81274;BME280;70753;47.908;11.274;2023-07-13T11:00:44;95091.50;;;24.06;51.50
81274;BME280;70753;47.908;11.274;2023-07-13T11:03:13;95091.47;;;23.68;51.05
81274;BME280;70753;47.908;11.274;2023-07-13T11:05:40;95098.78;;;23.29;51.27
81274;BME280;70753;47.908;11.274;2023-07-13T11:08:16;95097.53;;;23.42;51.78
81274;BME280;70753;47.908;11.274;2023-07-13T11:10:47;95094.25;;;23.91;52.70
81274;BME280;70753;47.908;11.274;2023-07-13T11:16:37;95091.41;;;24.22;51.46
81274;BME280;70753;47.908;11.274;2023-07-13T11:19:27;95082.75;;;25.07;49.25
81274;BME280;70753;47.908;11.274;2023-07-13T11:22:10;95084.69;;;25.59;47.74
81274;BME280;70753;47.908;11.274;2023-07-13T11:24:59;95073.09;;;26.32;45.20
81274;BME280;70753;47.908;11.274;2023-07-13T11:27:39;95078.34;;;25.51;44.43
81274;BME280;70753;47.908;11.274;2023-07-13T11:30:22;95083.47;;;24.36;48.43
81274;BME280;70753;47.908;11.274;2023-07-13T11:32:51;95079.69;;;24.86;46.01
81274;BME280;70753;47.908;11.274;2023-07-13T11:35:27;95073.28;;;23.91;49.14
81274;BME280;70753;47.908;11.274;2023-07-13T11:37:53;95064.16;;;24.03;48.47
81274;BME280;70753;47.908;11.274;2023-07-13T11:40:26;95063.25;;;24.37;47.10
81274;BME280;70753;47.908;11.274;2023-07-13T11:42:52;95058.41;;;25.77;44.94
81274;BME280;70753;47.908;11.274;2023-07-13T11:45:25;95068.59;;;25.83;43.73
81274;BME280;70753;47.908;11.274;2023-07-13T11:47:50;95059.47;;;26.76;41.47
81274;BME280;70753;47.908;11.274;2023-07-13T11:50:18;95053.84;;;27.05;42.10
81274;BME280;70753;47.908;11.274;2023-07-13T11:52:45;95049.56;;;27.08;40.08
81274;BME280;70753;47.908;11.274;2023-07-13T11:55:14;95052.53;;;26.89;41.77
81274;BME280;70753;47.908;11.274;2023-07-13T11:57:45;95049.31;;;28.06;37.74
81274;BME280;70753;47.908;11.274;2023-07-13T12:00:14;95053.22;;;26.02;40.89
81274;BME280;70753;47.908;11.274;2023-07-13T12:02:43;95047.63;;;26.65;42.56
81274;BME280;70753;47.908;11.274;2023-07-13T12:05:11;95051.28;;;26.76;41.41
81274;BME280;70753;47.908;11.274;2023-07-13T12:07:38;95042.78;;;26.47;40.72
81274;BME280;70753;47.908;11.274;2023-07-13T12:10:17;95045.31;;;26.70;40.13
81274;BME280;70753;47.908;11.274;2023-07-13T12:12:52;95045.16;;;25.79;43.11
81274;BME280;70753;47.908;11.274;2023-07-13T12:15:19;95048.78;;;26.23;40.34
81274;BME280;70753;47.908;11.274;2023-07-13T12:17:45;95054.00;;;24.42;42.09
81274;BME280;70753;47.908;11.274;2023-07-13T12:20:20;95055.25;;;24.25;43.62
81274;BME280;70753;47.908;11.274;2023-07-13T12:22:47;95049.94;;;24.77;39.51
81274;BME280;70753;47.908;11.274;2023-07-13T12:25:12;95049.28;;;24.84;38.19
81274;BME280;70753;47.908;11.274;2023-07-13T12:27:39;95047.44;;;25.18;40.90
81274;BME280;70753;47.908;11.274;2023-07-13T12:30:27;95044.84;;;25.02;40.17
81274;BME280;70753;47.908;11.274;2023-07-13T12:32:56;95034.53;;;24.88;42.32
81274;BME280;70753;47.908;11.274;2023-07-13T12:35:21;95032.28;;;24.94;42.57
81274;BME280;70753;47.908;11.274;2023-07-13T12:37:47;95031.13;;;25.21;40.00
81274;BME280;70753;47.908;11.274;2023-07-13T12:40:15;95019.88;;;25.00;41.16
81274;BME280;70753;47.908;11.274;2023-07-13T12:42:41;95024.25;;;25.34;40.99
81274;BME280;70753;47.908;11.274;2023-07-13T12:45:17;95019.63;;;26.34;39.80
81274;BME280;70753;47.908;11.274;2023-07-13T12:47:44;95007.41;;;26.69;36.68
81274;BME280;70753;47.908;11.274;2023-07-13T12:50:15;95004.00;;;26.79;37.27
81274;BME280;70753;47.908;11.274;2023-07-13T12:52:43;95004.78;;;26.83;36.69
81274;BME280;70753;47.908;11.274;2023-07-13T12:55:13;95015.66;;;26.28;37.76